Time;durP1;ratioP1;P1;durP2;ratioP2;P2;SDS_P1;SDS_P2;PMS_P1;PMS_P2;Temp;Humidity;BMP_temperature;BMP_pressure;BME280_temperature;BME280_humidity;BME280_pressure;Samples;Min_cycle;Max_cycle;Signal;HPM_P1;HPM_P2
2022/03/27 00:02:08;;;;;;;;;35.50;24.50;;;;;;;;2;261078460;261078460;-85
2022/03/27 00:11:24;;;;;;;;;31.00;19.00;;;;;;;;2;261079231;261079231;-84
2022/03/27 00:19:39;;;;;;;;;45.00;29.50;;;;;;;;2;261076644;261076644;-83
2022/03/27 00:28:40;;;;;;;;;35.00;24.50;;;;;;;;2;261076337;261076337;-84
2022/03/27 00:36:55;;;;;;;;;40.50;28.50;;;;;;;;2;261077521;261077521;-83
2022/03/27 00:45:56;;;;;;;;;41.00;29.00;;;;;;;;2;261078872;261078872;-84
2022/03/27 00:54:11;;;;;;;;;43.00;28.00;;;;;;;;2;261077149;261077149;-84
2022/03/27 01:03:13;;;;;;;;;43.00;35.50;;;;;;;;2;261077011;261077011;-84
2022/03/27 01:11:28;;;;;;;;;53.00;27.50;;;;;;;;2;261078674;261078674;-84
2022/03/27 01:20:34;;;;;;;;;45.00;32.00;;;;;;;;2;261073419;261073419;-86
2022/03/27 01:28:50;;;;;;;;;53.50;32.00;;;;;;;;2;261077284;261077284;-83
2022/03/27 01:37:51;;;;;;;;;51.50;31.00;;;;;;;;2;261076899;261076899;-84
2022/03/27 01:46:07;;;;;;;;;48.00;35.00;;;;;;;;2;261077874;261077874;-84
2022/03/27 01:55:09;;;;;;;;;28.00;25.50;;;;;;;;2;261076546;261076546;-85
2022/03/27 02:03:27;;;;;;;;;58.50;36.50;;;;;;;;2;261075089;261075089;-83
2022/03/27 02:12:28;;;;;;;;;53.00;30.50;;;;;;;;2;261076554;261076554;-83
2022/03/27 02:20:44;;;;;;;;;48.00;39.50;;;;;;;;2;261075577;261075577;-83
2022/03/27 02:29:44;;;;;;;;;42.00;29.50;;;;;;;;2;261077444;261077444;-83
2022/03/27 02:38:04;;;;;;;;;37.50;32.00;;;;;;;;2;261075075;261075075;-83
2022/03/27 02:47:05;;;;;;;;;35.00;20.50;;;;;;;;2;261079606;261079606;-83
2022/03/27 02:55:21;;;;;;;;;36.00;32.50;;;;;;;;2;261077587;261077587;-83
2022/03/27 03:04:21;;;;;;;;;29.50;29.00;;;;;;;;2;261076081;261076081;-83
2022/03/27 03:12:36;;;;;;;;;31.50;28.00;;;;;;;;2;261077581;261077581;-83
2022/03/27 03:21:37;;;;;;;;;38.00;33.00;;;;;;;;2;261075025;261075025;-83
2022/03/27 03:29:52;;;;;;;;;45.50;30.50;;;;;;;;2;261077333;261077333;-83
2022/03/27 03:38:53;;;;;;;;;26.50;26.00;;;;;;;;2;261077517;261077517;-83
2022/03/27 03:47:09;;;;;;;;;37.50;19.50;;;;;;;;2;261079192;261079192;-85
2022/03/27 03:56:11;;;;;;;;;28.50;28.00;;;;;;;;2;261077600;261077600;-83
2022/03/27 04:04:27;;;;;;;;;25.50;23.00;;;;;;;;2;261077896;261077896;-83
2022/03/27 04:13:27;;;;;;;;;36.00;24.00;;;;;;;;2;261079732;261079732;-83
2022/03/27 04:21:42;;;;;;;;;40.00;28.50;;;;;;;;2;261078193;261078193;-83
2022/03/27 04:30:43;;;;;;;;;29.00;29.00;;;;;;;;2;261077300;261077300;-82
2022/03/27 04:38:58;;;;;;;;;44.00;29.00;;;;;;;;2;261079521;261079521;-83
2022/03/27 04:47:59;;;;;;;;;34.50;27.50;;;;;;;;2;261080554;261080554;-82
2022/03/27 04:56:15;;;;;;;;;18.00;18.00;;;;;;;;2;261076260;261076260;-82
2022/03/27 05:05:16;;;;;;;;;20.00;18.50;;;;;;;;2;261075991;261075991;-84
2022/03/27 05:13:31;;;;;;;;;16.00;16.00;;;;;;;;2;261074995;261074995;-84
2022/03/27 05:22:31;;;;;;;;;20.00;20.00;;;;;;;;2;261077085;261077085;-84
2022/03/27 05:30:47;;;;;;;;;37.00;25.50;;;;;;;;2;261078596;261078596;-84
2022/03/27 05:39:47;;;;;;;;;27.00;27.00;;;;;;;;2;261077482;261077482;-84
2022/03/27 05:48:03;;;;;;;;;31.00;19.50;;;;;;;;2;261080807;261080807;-84
2022/03/27 05:57:04;;;;;;;;;23.00;23.00;;;;;;;;2;261077863;261077863;-84
2022/03/27 06:05:23;;;;;;;;;23.00;23.00;;;;;;;;2;261077020;261077020;-84
2022/03/27 06:14:23;;;;;;;;;26.50;26.50;;;;;;;;2;261077187;261077187;-84
2022/03/27 06:22:39;;;;;;;;;26.50;21.00;;;;;;;;2;261075131;261075131;-83
2022/03/27 06:31:40;;;;;;;;;41.50;26.50;;;;;;;;2;261078893;261078893;-83
2022/03/27 06:39:55;;;;;;;;;28.50;26.50;;;;;;;;2;261076531;261076531;-83
2022/03/27 06:48:56;;;;;;;;;28.00;18.50;;;;;;;;2;261078892;261078892;-83
2022/03/27 06:57:11;;;;;;;;;37.50;34.50;;;;;;;;2;261077017;261077017;-84
2022/03/27 07:06:16;;;;;;;;;25.50;25.50;;;;;;;;2;261076723;261076723;-83
2022/03/27 07:14:31;;;;;;;;;31.00;25.50;;;;;;;;2;261082014;261082014;-83
2022/03/27 07:23:31;;;;;;;;;34.50;32.50;;;;;;;;2;261077283;261077283;-84
2022/03/27 07:31:49;;;;;;;;;23.00;21.00;;;;;;;;2;261079633;261079633;-84
2022/03/27 07:40:49;;;;;;;;;18.50;15.50;;;;;;;;2;261079174;261079174;-84
2022/03/27 07:49:04;;;;;;;;;19.50;19.50;;;;;;;;2;261080080;261080080;-84
2022/03/27 07:58:05;;;;;;;;;26.00;26.00;;;;;;;;2;261077957;261077957;-84
2022/03/27 08:06:20;;;;;;;;;34.00;22.50;;;;;;;;2;261079546;261079546;-84
2022/03/27 08:15:21;;;;;;;;;31.00;16.50;;;;;;;;2;261076682;261076682;-87
2022/03/27 08:23:36;;;;;;;;;29.00;28.50;;;;;;;;2;261076331;261076331;-83
2022/03/27 08:32:37;;;;;;;;;33.00;24.50;;;;;;;;2;261077849;261077849;-84
2022/03/27 08:40:54;;;;;;;;;21.00;21.00;;;;;;;;2;261078474;261078474;-89
2022/03/27 08:49:54;;;;;;;;;35.50;31.00;;;;;;;;2;261076631;261076631;-88
2022/03/27 08:58:11;;;;;;;;;31.00;19.00;;;;;;;;2;261078832;261078832;-88
2022/03/27 09:07:11;;;;;;;;;30.00;27.50;;;;;;;;2;261080697;261080697;-89
2022/03/27 09:15:27;;;;;;;;;39.50;27.50;;;;;;;;2;261080601;261080601;-88
2022/03/27 09:24:35;;;;;;;;;29.50;20.50;;;;;;;;2;261080717;261080717;-93
2022/03/27 09:32:52;;;;;;;;;26.00;21.00;;;;;;;;2;261077230;261077230;-93
2022/03/27 09:41:58;;;;;;;;;21.50;21.50;;;;;;;;2;261076753;261076753;-93
2022/03/27 09:50:33;;;;;;;;;23.00;23.00;;;;;;;;2;261075457;261075457;-93
2022/03/27 09:59:34;;;;;;;;;30.50;26.50;;;;;;;;2;261075261;261075261;-93
2022/03/27 10:07:52;;;;;;;;;39.00;16.00;;;;;;;;2;261076870;261076870;-94
2022/03/27 10:16:52;;;;;;;;;35.50;23.50;;;;;;;;2;261074579;261074579;-93
2022/03/27 10:25:09;;;;;;;;;30.00;21.00;;;;;;;;2;261075503;261075503;-93
2022/03/27 10:34:11;;;;;;;;;19.50;19.50;;;;;;;;2;261073818;261073818;-93
2022/03/27 10:42:45;;;;;;;;;32.00;28.50;;;;;;;;2;261079101;261079101;-94
2022/03/27 10:51:46;;;;;;;;;18.50;18.50;;;;;;;;2;261073965;261073965;-94
2022/03/27 11:00:06;;;;;;;;;28.00;28.00;;;;;;;;2;261076226;261076226;-92
2022/03/27 11:09:08;;;;;;;;;30.00;13.00;;;;;;;;2;261073188;261073188;-93
2022/03/27 11:17:38;;;;;;;;;46.50;32.00;;;;;;;;2;261071152;261071152;-94
2022/03/27 11:26:39;;;;;;;;;23.00;23.00;;;;;;;;2;261071280;261071280;-95
2022/03/27 11:35:10;;;;;;;;;43.50;28.00;;;;;;;;2;261071418;261071418;-93
2022/03/27 11:44:17;;;;;;;;;23.50;23.50;;;;;;;;2;261073056;261073056;-92
2022/03/27 11:52:34;;;;;;;;;40.00;32.50;;;;;;;;2;261072021;261072021;-94
2022/03/27 12:01:35;;;;;;;;;18.00;18.00;;;;;;;;2;261073476;261073476;-93
2022/03/27 12:09:58;;;;;;;;;29.50;27.00;;;;;;;;2;261073793;261073793;-93
2022/03/27 12:19:11;;;;;;;;;24.00;24.00;;;;;;;;2;261068932;261068932;-90
2022/03/27 12:37:09;;;;;;;;;22.50;22.50;;;;;;;;2;261074375;261074375;-89
2022/03/27 12:45:25;;;;;;;;;33.00;22.00;;;;;;;;2;261076213;261076213;-88
2022/03/27 12:54:27;;;;;;;;;47.50;25.50;;;;;;;;2;261074563;261074563;-89
2022/03/27 13:02:43;;;;;;;;;25.00;22.00;;;;;;;;2;261077605;261077605;-89
2022/03/27 13:11:44;;;;;;;;;28.50;28.50;;;;;;;;2;261076734;261076734;-89
2022/03/27 13:20:00;;;;;;;;;36.00;24.00;;;;;;;;2;261078807;261078807;-90
2022/03/27 13:29:00;;;;;;;;;39.50;24.50;;;;;;;;2;261075896;261075896;-88
2022/03/27 13:37:16;;;;;;;;;33.00;28.00;;;;;;;;2;261076834;261076834;-88
2022/03/27 13:46:16;;;;;;;;;33.50;25.50;;;;;;;;2;261074202;261074202;-89
2022/03/27 13:54:32;;;;;;;;;38.00;26.50;;;;;;;;2;261074792;261074792;-88
2022/03/27 14:03:32;;;;;;;;;41.00;34.00;;;;;;;;2;261074923;261074923;-88
2022/03/27 14:11:47;;;;;;;;;16.50;16.50;;;;;;;;2;261077875;261077875;-89
2022/03/27 14:20:48;;;;;;;;;16.00;16.00;;;;;;;;2;261075880;261075880;-89
2022/03/27 14:29:04;;;;;;;;;28.50;24.00;;;;;;;;2;261073312;261073312;-88
2022/03/27 14:38:05;;;;;;;;;39.50;24.00;;;;;;;;2;261074844;261074844;-89
2022/03/27 14:46:21;;;;;;;;;14.50;14.50;;;;;;;;2;261077404;261077404;-88
2022/03/27 15:03:56;;;;;;;;;28.50;23.00;;;;;;;;2;261078526;261078526;-86
2022/03/27 15:12:56;;;;;;;;;18.00;18.00;;;;;;;;2;261084289;261084289;-86
2022/03/27 15:21:12;;;;;;;;;35.50;33.00;;;;;;;;2;261078071;261078071;-88
2022/03/27 15:30:15;;;;;;;;;26.00;26.00;;;;;;;;2;261081311;261081311;-89
2022/03/27 15:38:30;;;;;;;;;36.50;23.50;;;;;;;;2;261077481;261077481;-90
2022/03/27 15:47:31;;;;;;;;;21.00;21.00;;;;;;;;2;261077461;261077461;-95
2022/03/27 15:55:46;;;;;;;;;32.00;18.50;;;;;;;;2;261076919;261076919;-88
2022/03/27 16:04:47;;;;;;;;;21.50;21.50;;;;;;;;2;261079185;261079185;-81
2022/03/27 16:13:02;;;;;;;;;19.00;19.00;;;;;;;;2;261079468;261079468;-81
2022/03/27 16:22:03;;;;;;;;;14.00;14.00;;;;;;;;2;261080425;261080425;-79
2022/03/27 16:30:18;;;;;;;;;23.00;17.50;;;;;;;;2;261077824;261077824;-79
2022/03/27 16:39:18;;;;;;;;;13.50;13.50;;;;;;;;2;261078886;261078886;-79
2022/03/27 16:47:34;;;;;;;;;20.50;20.50;;;;;;;;2;261081636;261081636;-79
2022/03/27 16:56:35;;;;;;;;;25.00;23.50;;;;;;;;2;261075942;261075942;-79
2022/03/27 17:04:50;;;;;;;;;24.50;20.00;;;;;;;;2;261077585;261077585;-79
2022/03/27 17:13:51;;;;;;;;;13.50;13.50;;;;;;;;2;261077165;261077165;-79
2022/03/27 17:22:06;;;;;;;;;29.00;14.50;;;;;;;;2;261077011;261077011;-79
2022/03/27 17:31:06;;;;;;;;;16.50;16.50;;;;;;;;2;261078368;261078368;-79
2022/03/27 17:39:22;;;;;;;;;24.00;12.00;;;;;;;;2;261078431;261078431;-80
2022/03/27 17:48:23;;;;;;;;;25.50;16.50;;;;;;;;2;261079740;261079740;-80
2022/03/27 17:56:38;;;;;;;;;18.50;18.50;;;;;;;;2;261080475;261080475;-80
2022/03/27 18:05:40;;;;;;;;;17.50;17.50;;;;;;;;2;261087334;261087334;-80
2022/03/27 18:13:55;;;;;;;;;26.00;22.50;;;;;;;;2;261083902;261083902;-80
2022/03/27 18:22:55;;;;;;;;;46.00;23.00;;;;;;;;2;261086231;261086231;-81
2022/03/27 18:31:11;;;;;;;;;20.50;20.50;;;;;;;;2;261086453;261086453;-80
2022/03/27 18:40:12;;;;;;;;;29.50;28.00;;;;;;;;2;261085890;261085890;-81
2022/03/27 18:48:27;;;;;;;;;33.00;27.50;;;;;;;;2;261091004;261091004;-81
2022/03/27 18:57:28;;;;;;;;;24.50;24.50;;;;;;;;2;261085392;261085392;-81
2022/03/27 19:05:43;;;;;;;;;44.50;23.50;;;;;;;;2;261080438;261080438;-80
2022/03/27 19:14:44;;;;;;;;;37.00;26.00;;;;;;;;2;261079892;261079892;-80
2022/03/27 19:23:05;;;;;;;;;44.00;31.00;;;;;;;;2;261076352;261076352;-80
2022/03/27 19:32:05;;;;;;;;;55.50;33.00;;;;;;;;2;261077988;261077988;-80
2022/03/27 19:40:21;;;;;;;;;44.50;31.50;;;;;;;;2;261080405;261080405;-80
2022/03/27 19:49:21;;;;;;;;;33.00;30.50;;;;;;;;2;261076558;261076558;-78
2022/03/27 19:57:37;;;;;;;;;35.00;29.50;;;;;;;;2;261078379;261078379;-78
2022/03/27 20:06:37;;;;;;;;;55.50;34.50;;;;;;;;2;261075188;261075188;-77
2022/03/27 20:14:52;;;;;;;;;43.00;31.50;;;;;;;;2;261077496;261077496;-79
2022/03/27 20:23:53;;;;;;;;;33.00;28.50;;;;;;;;2;261077412;261077412;-80
2022/03/27 20:32:10;;;;;;;;;32.50;30.00;;;;;;;;2;261075416;261075416;-79
2022/03/27 20:41:10;;;;;;;;;42.50;30.00;;;;;;;;2;261074989;261074989;-79
2022/03/27 20:49:25;;;;;;;;;50.00;34.00;;;;;;;;2;261078785;261078785;-79
2022/03/27 20:58:26;;;;;;;;;31.50;30.00;;;;;;;;2;261080572;261080572;-79
2022/03/27 21:06:41;;;;;;;;;37.50;30.00;;;;;;;;2;261080605;261080605;-79
2022/03/27 21:15:42;;;;;;;;;28.50;26.50;;;;;;;;2;261080347;261080347;-79
2022/03/27 21:23:57;;;;;;;;;52.00;34.50;;;;;;;;2;261078747;261078747;-83
2022/03/27 21:32:59;;;;;;;;;24.50;24.50;;;;;;;;2;261080920;261080920;-82
2022/03/27 21:41:14;;;;;;;;;31.50;31.00;;;;;;;;2;261075478;261075478;-83
2022/03/27 21:50:14;;;;;;;;;53.50;28.50;;;;;;;;2;261075639;261075639;-83
2022/03/27 21:58:30;;;;;;;;;38.50;35.00;;;;;;;;2;261077551;261077551;-82
2022/03/27 22:07:31;;;;;;;;;45.50;32.50;;;;;;;;2;261077616;261077616;-82
2022/03/27 22:15:46;;;;;;;;;43.50;32.50;;;;;;;;2;261076556;261076556;-82
2022/03/27 22:24:47;;;;;;;;;41.50;28.50;;;;;;;;2;261074679;261074679;-81
2022/03/27 22:36:21;;;;;;;;;31.00;30.50;;;;;;;;2;261074276;261074276;-83
2022/03/27 22:45:22;;;;;;;;;40.50;34.00;;;;;;;;2;261074660;261074660;-82
2022/03/27 22:53:38;;;;;;;;;37.00;34.00;;;;;;;;2;261077898;261077898;-82
2022/03/27 23:02:39;;;;;;;;;40.50;24.00;;;;;;;;2;261075478;261075478;-82
2022/03/27 23:10:55;;;;;;;;;25.50;24.00;;;;;;;;2;261075866;261075866;-82
2022/03/27 23:19:55;;;;;;;;;27.50;27.50;;;;;;;;2;261075179;261075179;-82
2022/03/27 23:28:11;;;;;;;;;43.00;32.50;;;;;;;;2;261074951;261074951;-83
2022/03/27 23:37:12;;;;;;;;;39.50;27.00;;;;;;;;2;261075824;261075824;-83
2022/03/27 23:45:27;;;;;;;;;39.50;22.00;;;;;;;;2;261074778;261074778;-82
2022/03/27 23:54:29;;;;;;;;;20.00;20.00;;;;;;;;2;261074115;261074115;-83
